createdAt,value
2022-11-16T00:03:36.414Z,89.46
2022-11-16T00:08:45.341Z,89.61
2022-11-16T00:13:48.649Z,89.74
2022-11-16T00:18:58.352Z,90.02
2022-11-16T00:24:03.099Z,89.90
2022-11-16T00:29:06.771Z,89.71
2022-11-16T00:34:10.186Z,89.67
2022-11-16T00:39:15.981Z,89.61
2022-11-16T00:44:19.385Z,89.50
2022-11-16T00:49:22.671Z,89.57
2022-11-16T00:54:26.098Z,89.60
2022-11-16T00:59:29.396Z,89.65
2022-11-16T01:04:32.709Z,89.69
2022-11-16T01:09:36.051Z,89.52
2022-11-16T01:14:46.814Z,89.57
2022-11-16T01:19:50.323Z,89.61
2022-11-16T01:24:53.534Z,89.72
2022-11-16T01:29:57.043Z,89.67
2022-11-16T01:35:00.258Z,89.56
2022-11-16T01:40:04.698Z,89.40
2022-11-16T01:45:30.544Z,89.33
2022-11-16T01:50:35.082Z,89.39
2022-11-16T01:55:40.701Z,89.26
2022-11-16T02:00:44.143Z,89.15
2022-11-16T02:06:28.216Z,89.18
2022-11-16T02:11:50.989Z,89.25
2022-11-16T02:17:12.633Z,89.15
2022-11-16T02:22:38.766Z,89.01
2022-11-16T02:27:47.717Z,88.82
2022-11-16T02:32:59.878Z,88.46
2022-11-16T02:38:14.435Z,88.00
2022-11-16T02:43:26.624Z,87.78
2022-11-16T02:48:42.119Z,87.83
2022-11-16T02:54:23.795Z,87.34
2022-11-16T02:59:31.743Z,86.88
2022-11-16T03:05:05.160Z,86.28
2022-11-16T03:10:10.356Z,85.73
2022-11-16T03:15:14.042Z,85.41
2022-11-16T03:20:27.176Z,85.33
2022-11-16T03:25:38.474Z,85.14
2022-11-16T03:30:52.904Z,85.08
2022-11-16T03:36:10.407Z,85.00
2022-11-16T03:41:15.525Z,84.95
2022-11-16T03:46:21.621Z,84.27
2022-11-16T03:51:25.856Z,84.12
2022-11-16T03:56:29.061Z,83.81
2022-11-16T04:01:32.370Z,83.60
2022-11-16T04:06:54.283Z,83.28
2022-11-16T04:12:15.968Z,82.84
2022-11-16T04:17:39.245Z,82.67
2022-11-16T04:23:22.288Z,82.75
2022-11-16T04:28:32.252Z,83.07
2022-11-16T04:33:54.941Z,83.46
2022-11-16T04:38:58.225Z,83.33
2022-11-16T04:44:01.544Z,83.28
2022-11-16T04:49:04.856Z,83.16
2022-11-16T04:54:08.088Z,82.82
2022-11-16T04:59:11.571Z,82.74
2022-11-16T05:04:14.688Z,82.54
2022-11-16T05:09:17.992Z,82.24
2022-11-16T05:14:21.101Z,82.03
2022-11-16T05:19:42.946Z,82.37
2022-11-16T05:24:46.084Z,83.14
2022-11-16T05:29:49.990Z,83.81
2022-11-16T05:34:53.384Z,84.07
2022-11-16T05:39:57.224Z,84.21
2022-11-16T05:45:00.552Z,84.37
2022-11-16T05:50:04.297Z,84.52
2022-11-16T05:55:08.601Z,84.89
2022-11-16T06:00:13.135Z,85.10
2022-11-16T06:05:16.336Z,85.01
2022-11-16T06:10:19.638Z,84.80
2022-11-16T06:15:23.049Z,84.71
2022-11-16T06:20:27.590Z,84.54
2022-11-16T06:25:33.566Z,84.72
2022-11-16T06:30:40.346Z,84.93
2022-11-16T06:35:44.178Z,84.84
2022-11-16T06:40:56.125Z,84.66
2022-11-16T06:45:59.311Z,84.42
2022-11-16T06:51:02.561Z,84.22
2022-11-16T06:56:06.843Z,84.36
2022-11-16T07:01:12.673Z,84.42
2022-11-16T07:06:16.226Z,84.43
2022-11-16T07:11:20.496Z,84.27
2022-11-16T07:16:23.874Z,84.11
2022-11-16T07:21:26.985Z,84.39
2022-11-16T07:26:33.209Z,83.94
2022-11-16T07:31:36.368Z,83.64
2022-11-16T07:36:39.794Z,83.68
2022-11-16T07:41:44.530Z,83.68
2022-11-16T07:46:48.601Z,83.70
2022-11-16T07:51:52.071Z,83.17
2022-11-16T07:56:55.182Z,82.97
2022-11-16T08:01:59.466Z,82.79
2022-11-16T08:07:02.891Z,82.75
2022-11-16T08:12:06.478Z,82.29
2022-11-16T08:17:09.853Z,81.69
2022-11-16T08:22:13.284Z,81.43
2022-11-16T08:27:17.817Z,81.19
2022-11-16T08:32:21.015Z,81.44
2022-11-16T08:37:26.382Z,81.67
2022-11-16T08:42:29.485Z,81.26
2022-11-16T08:47:33.229Z,81.00
2022-11-16T08:52:36.422Z,80.97
2022-11-16T08:57:41.132Z,80.79
2022-11-16T09:02:44.162Z,80.54
2022-11-16T09:07:47.466Z,80.39
2022-11-16T09:12:50.578Z,80.51
2022-11-16T09:17:55.143Z,80.30
2022-11-16T09:22:58.226Z,80.46
2022-11-16T09:28:01.551Z,80.49
2022-11-16T09:33:04.634Z,80.07
2022-11-16T09:38:10.068Z,80.17
2022-11-16T09:43:45.623Z,80.24
2022-11-16T09:48:51.348Z,80.21
2022-11-16T09:54:08.876Z,80.04
2022-11-16T09:59:25.821Z,79.81
2022-11-16T10:04:58.272Z,79.61
2022-11-16T10:10:02.331Z,79.85
2022-11-16T10:15:33.902Z,79.46
2022-11-16T10:21:03.749Z,79.52
2022-11-16T10:26:37.674Z,79.21
2022-11-16T10:32:28.320Z,78.61
2022-11-16T10:37:36.792Z,78.74
2022-11-16T10:42:39.927Z,78.81
2022-11-16T10:48:02.179Z,78.67
2022-11-16T10:53:05.809Z,78.22
2022-11-16T10:58:09.046Z,78.23
2022-11-16T11:03:13.175Z,78.35
2022-11-16T11:08:31.909Z,78.74
2022-11-16T11:13:35.363Z,78.58
2022-11-16T11:18:38.945Z,78.44
2022-11-16T11:23:52.151Z,78.46
2022-11-16T11:28:56.414Z,78.14
2022-11-16T11:34:18.260Z,78.59
2022-11-16T11:39:21.361Z,78.54
2022-11-16T11:44:38.130Z,78.74
2022-11-16T11:49:52.432Z,78.74
2022-11-16T11:54:56.814Z,78.89
2022-11-16T12:00:02.869Z,78.85
2022-11-16T12:05:50.834Z,79.44
2022-11-16T12:11:13.191Z,79.40
2022-11-16T12:16:53.062Z,79.53
2022-11-16T12:22:26.271Z,79.10
2022-11-16T12:28:10.262Z,78.86
2022-11-16T12:33:37.343Z,79.21
2022-11-16T12:38:49.747Z,78.68
2022-11-16T12:44:14.544Z,78.84
2022-11-16T12:49:28.815Z,78.70
2022-11-16T12:55:29.827Z,78.26
2022-11-16T13:00:56.058Z,78.51
2022-11-16T13:06:25.633Z,78.43
2022-11-16T13:11:47.799Z,78.51
2022-11-16T13:16:53.161Z,77.99
2022-11-16T13:22:07.535Z,78.19
2022-11-16T13:27:53.119Z,78.17
2022-11-16T13:33:05.385Z,78.40
2022-11-16T13:38:15.553Z,78.29
2022-11-16T13:43:20.059Z,78.57
2022-11-16T13:48:36.476Z,78.38
2022-11-16T13:59:23.041Z,78.58
2022-11-16T14:04:41.935Z,78.46
2022-11-16T14:09:49.631Z,77.86
2022-11-16T14:15:33.185Z,77.78
2022-11-16T14:21:33.225Z,77.67
2022-11-16T14:27:17.099Z,77.84
2022-11-16T14:32:36.999Z,77.66
2022-11-16T14:37:44.698Z,77.42
2022-11-16T14:43:15.367Z,77.24
2022-11-16T14:48:22.628Z,76.68
2022-11-16T14:53:28.381Z,76.75
2022-11-16T14:58:32.244Z,76.91
2022-11-16T15:03:45.974Z,77.53
2022-11-16T15:08:59.763Z,77.92
2022-11-16T15:14:03.100Z,77.90
2022-11-16T15:19:12.754Z,77.65
2022-11-16T15:24:31.851Z,77.57
2022-11-16T15:29:36.455Z,77.69
2022-11-16T15:34:40.177Z,77.96
2022-11-16T15:39:43.999Z,77.95
2022-11-16T15:44:47.348Z,78.08
2022-11-16T15:49:53.227Z,78.03
2022-11-16T15:55:04.996Z,77.85
2022-11-16T16:00:23.513Z,77.39
2022-11-16T16:05:35.061Z,76.74
2022-11-16T16:10:38.207Z,76.79
2022-11-16T16:15:41.786Z,76.64
2022-11-16T16:20:49.092Z,76.58
2022-11-16T16:25:52.198Z,76.67
2022-11-16T16:30:55.323Z,76.40
2022-11-16T16:35:59.327Z,76.66
2022-11-16T16:41:05.148Z,76.58
2022-11-16T16:46:13.294Z,76.65
2022-11-16T16:51:16.430Z,76.78
2022-11-16T16:56:20.359Z,77.13
2022-11-16T17:01:23.515Z,77.34
2022-11-16T17:06:26.876Z,77.36
2022-11-16T17:11:30.085Z,77.22
2022-11-16T17:16:33.291Z,77.28
2022-11-16T17:21:36.510Z,77.48
2022-11-16T17:26:41.361Z,77.69
2022-11-16T17:31:48.060Z,77.96
2022-11-16T17:36:51.358Z,78.04
2022-11-16T17:41:54.983Z,77.98
2022-11-16T17:46:58.180Z,77.96
2022-11-16T17:52:02.035Z,77.93
2022-11-16T17:57:05.459Z,77.94
2022-11-16T18:02:11.922Z,78.19
2022-11-16T18:07:15.293Z,77.96
2022-11-16T18:12:18.930Z,78.12
2022-11-16T18:17:22.139Z,78.04
2022-11-16T18:22:25.458Z,77.89
2022-11-16T18:27:28.987Z,77.78
2022-11-16T18:32:33.827Z,77.92
2022-11-16T18:37:37.225Z,77.85
2022-11-16T18:42:41.816Z,77.77
2022-11-16T18:47:46.309Z,77.49
2022-11-16T18:52:49.633Z,77.32
2022-11-16T18:57:52.721Z,76.90
2022-11-16T19:02:55.851Z,76.83
2022-11-16T19:07:59.046Z,76.82
2022-11-16T19:13:02.362Z,76.74
2022-11-16T19:18:20.999Z,76.67
2022-11-16T19:23:25.230Z,76.68
2022-11-16T19:28:28.367Z,76.69
2022-11-16T19:33:31.767Z,76.56
2022-11-16T19:38:35.596Z,76.45
2022-11-16T19:43:39.528Z,76.25
2022-11-16T19:48:45.856Z,76.53
2022-11-16T19:53:49.223Z,76.68
2022-11-16T19:58:53.033Z,76.45
2022-11-16T20:04:02.521Z,76.47
2022-11-16T20:09:09.984Z,76.78
2022-11-16T20:14:14.216Z,76.50
2022-11-16T20:19:19.137Z,76.14
2022-11-16T20:24:22.497Z,76.32
2022-11-16T20:29:25.705Z,76.29
2022-11-16T20:34:29.021Z,76.47
2022-11-16T20:39:32.222Z,76.36
2022-11-16T20:44:35.427Z,76.25
2022-11-16T20:49:38.742Z,76.28
2022-11-16T20:54:41.966Z,76.28
2022-11-16T20:59:45.164Z,76.12
2022-11-16T21:04:48.464Z,75.88
2022-11-16T21:10:10.224Z,75.85
2022-11-16T21:15:13.527Z,75.98
2022-11-16T21:20:32.781Z,75.71
2022-11-16T21:25:36.434Z,75.61
2022-11-16T21:30:39.840Z,75.79
2022-11-16T21:35:42.945Z,75.68
2022-11-16T21:40:46.872Z,75.45
2022-11-16T21:45:51.269Z,75.38
2022-11-16T21:51:04.123Z,75.36
2022-11-16T21:56:12.860Z,75.61
2022-11-16T22:01:16.431Z,75.51
2022-11-16T22:06:38.375Z,75.59
2022-11-16T22:17:21.335Z,75.49
2022-11-16T22:22:28.022Z,75.31
2022-11-16T22:27:31.529Z,75.35
2022-11-16T22:32:34.837Z,75.00
2022-11-16T22:37:38.156Z,75.10
2022-11-16T22:42:41.490Z,75.14
2022-11-16T22:47:44.792Z,75.14
2022-11-16T22:52:48.292Z,75.23
2022-11-16T22:57:52.330Z,74.85
2022-11-16T23:02:55.684Z,74.68
2022-11-16T23:07:59.249Z,74.71
2022-11-16T23:13:21.410Z,74.47
2022-11-16T23:18:24.672Z,74.95
2022-11-16T23:23:46.456Z,74.96
2022-11-16T23:28:49.968Z,74.95
2022-11-16T23:33:53.182Z,74.71
2022-11-16T23:38:56.486Z,74.83
2022-11-16T23:43:59.806Z,74.86
2022-11-16T23:49:03.221Z,74.47
2022-11-16T23:54:07.761Z,74.43
2022-11-16T23:59:11.064Z,74.47
